Time;durP1;ratioP1;P1;durP2;ratioP2;P2;SDS_P1;SDS_P2;PMS_P1;PMS_P2;Temp;Humidity;BMP_temperature;BMP_pressure;BME280_temperature;BME280_humidity;BME280_pressure;Samples;Min_cycle;Max_cycle;Signal;HPM_P1;HPM_P2
2022/03/21 00:00:57;;;;;;;;;66.50;53.25;;;;;9.26;56.73;102142.31;5088005;28;46221;-80
2022/03/21 00:03:24;;;;;;;;;72.75;57.75;;;;;9.28;57.30;102143.28;5087972;28;45042;-80
2022/03/21 00:05:51;;;;;;;;;67.75;55.00;;;;;9.15;57.19;102121.44;5094202;27;45511;-80
2022/03/21 00:08:18;;;;;;;;;72.25;56.00;;;;;9.26;57.23;102138.75;5108511;27;45016;-80
2022/03/21 00:10:45;;;;;;;;;64.25;52.00;;;;;9.22;57.52;102135.03;5104764;27;46968;-80
2022/03/21 00:13:14;;;;;;;;;70.00;53.25;;;;;9.00;57.63;102097.78;5090551;27;45427;-80
2022/03/21 00:15:40;;;;;;;;;71.25;56.00;;;;;9.08;57.73;102114.00;5109168;27;45336;-80
2022/03/21 00:18:06;;;;;;;;;67.75;53.00;;;;;9.18;57.61;102134.75;5104950;27;45019;-80
2022/03/21 00:20:32;;;;;;;;;65.75;52.00;;;;;9.02;57.47;102117.16;5087953;27;46110;-80
2022/03/21 00:22:59;;;;;;;;;69.00;55.00;;;;;9.13;57.50;102144.06;5087332;28;45097;-80
2022/03/21 00:25:24;;;;;;;;;64.75;51.25;;;;;9.14;57.67;102149.38;5087844;27;45184;-80
2022/03/21 00:27:50;;;;;;;;;67.00;52.75;;;;;9.13;57.93;102155.44;5087555;27;45174;-80
2022/03/21 00:30:16;;;;;;;;;66.75;53.50;;;;;8.90;57.55;102112.03;5086339;28;47387;-80
2022/03/21 00:32:43;;;;;;;;;70.25;54.00;;;;;8.96;58.08;102128.13;5088054;28;45787;-80
2022/03/21 00:35:12;;;;;;;;;67.50;53.00;;;;;9.09;58.12;102150.81;5085945;28;45192;-80
2022/03/21 00:37:38;;;;;;;;;68.00;52.50;;;;;9.02;58.16;102135.53;5088640;27;45280;-80
2022/03/21 00:40:08;;;;;;;;;65.75;51.25;;;;;8.97;58.11;102121.22;5108334;27;45643;-80
2022/03/21 00:42:39;;;;;;;;;68.25;53.00;;;;;8.98;57.98;102120.41;5099305;27;45324;-79
2022/03/21 00:45:06;;;;;;;;;66.25;51.75;;;;;8.98;58.41;102120.41;5087709;28;45042;-79
2022/03/21 00:47:33;;;;;;;;;66.00;52.00;;;;;9.21;58.21;102154.22;5087721;28;45273;-79
2022/03/21 00:49:58;;;;;;;;;65.50;51.75;;;;;9.24;58.46;102146.53;5087855;27;45754;-80
2022/03/21 00:52:24;;;;;;;;;66.50;51.25;;;;;9.18;58.48;102126.88;5089150;27;45467;-79
2022/03/21 00:54:49;;;;;;;;;64.00;51.67;;;;;9.30;58.25;102138.13;5091899;27;45221;-80
2022/03/21 00:57:15;;;;;;;;;64.75;51.75;;;;;9.41;58.06;102142.34;5090739;28;45421;-80
2022/03/21 00:59:40;;;;;;;;;64.50;51.50;;;;;9.49;58.64;102141.06;5091101;28;45618;-80
2022/03/21 01:02:08;;;;;;;;;67.75;52.25;;;;;9.39;58.53;102114.19;5091281;28;45123;-80
2022/03/21 01:04:33;;;;;;;;;66.50;53.00;;;;;9.28;58.03;102090.81;5090896;28;45343;-79
2022/03/21 01:06:59;;;;;;;;;68.00;54.25;;;;;9.45;58.47;102109.28;5091189;28;45048;-80
2022/03/21 01:09:24;;;;;;;;;63.00;51.00;;;;;9.63;58.58;102135.78;5090028;27;46995;-80
2022/03/21 01:11:49;;;;;;;;;67.33;51.33;;;;;9.54;57.90;102122.97;5089427;27;45318;-80
2022/03/21 01:14:15;;;;;;;;;61.67;50.67;;;;;9.68;58.53;102136.94;5090583;28;45114;-80
2022/03/21 01:16:40;;;;;;;;;64.50;51.25;;;;;9.59;58.55;102131.13;5106453;27;45047;-80
2022/03/21 01:19:06;;;;;;;;;67.50;53.00;;;;;9.70;58.17;102132.69;5090590;28;45457;-80
2022/03/21 01:21:32;;;;;;;;;66.25;52.50;;;;;9.61;58.57;102119.03;5090866;28;45128;-80
2022/03/21 01:23:58;;;;;;;;;65.25;52.25;;;;;9.63;58.40;102120.03;5090889;28;45420;-79
2022/03/21 01:26:24;;;;;;;;;66.75;53.75;;;;;9.73;58.88;102140.75;5090070;27;44995;-80
2022/03/21 01:28:49;;;;;;;;;66.25;53.00;;;;;9.72;58.59;102138.94;5090701;28;45580;-80
2022/03/21 01:31:14;;;;;;;;;60.00;48.00;;;;;9.63;58.24;102127.88;5099326;27;45561;-80
2022/03/21 01:33:41;;;;;;;;;66.00;51.00;;;;;9.68;58.90;102134.31;5111025;27;45220;-80
2022/03/21 01:36:07;;;;;;;;;65.75;52.50;;;;;9.51;58.82;102107.97;5105315;27;45158;-80
2022/03/21 01:38:33;;;;;;;;;64.00;51.00;;;;;9.59;58.64;102123.25;5090223;28;46070;-80
2022/03/21 01:40:58;;;;;;;;;66.50;51.00;;;;;9.40;58.96;102089.75;5089653;27;45139;-80
2022/03/21 01:43:24;;;;;;;;;66.67;53.00;;;;;9.52;58.70;102109.78;5088863;27;45265;-80
2022/03/21 01:45:49;;;;;;;;;64.50;52.50;;;;;9.64;58.83;102133.22;5088562;28;45137;-79
2022/03/21 01:48:14;;;;;;;;;65.33;51.33;;;;;9.65;58.73;102137.66;5091333;27;45924;-80
2022/03/21 01:50:42;;;;;;;;;70.00;53.00;;;;;9.55;58.66;102136.19;5109279;27;45162;-80
2022/03/21 01:55:52;;;;;;;;;63.25;51.00;;;;;9.22;58.82;102097.41;5090312;28;45136;-80
2022/03/21 01:58:19;;;;;;;;;66.00;52.00;;;;;9.33;59.11;102126.94;5090122;28;45130;-80
2022/03/21 02:00:45;;;;;;;;;64.25;48.75;;;;;9.27;59.40;102127.47;5090072;27;45307;-80
2022/03/21 02:03:11;;;;;;;;;61.50;49.50;;;;;9.30;59.51;102119.75;5090128;27;45182;-79
2022/03/21 02:05:38;;;;;;;;;70.25;53.50;;;;;9.44;59.33;102142.50;5101680;27;45450;-80
2022/03/21 02:08:04;;;;;;;;;66.25;53.25;;;;;9.33;59.52;102119.06;5110611;27;45479;-80
2022/03/21 02:10:31;;;;;;;;;66.50;53.50;;;;;9.41;59.56;102134.47;5110277;27;45091;-80
2022/03/21 02:12:57;;;;;;;;;66.50;52.25;;;;;9.39;59.46;102137.78;5110756;27;45312;-80
2022/03/21 02:15:23;;;;;;;;;68.50;52.00;;;;;9.29;59.69;102129.34;5108632;27;45080;-80
2022/03/21 02:17:58;;;;;;;;;66.50;52.50;;;;;9.36;59.69;102134.97;5110947;27;45589;-80
2022/03/21 02:20:24;;;;;;;;;67.50;51.25;;;;;9.17;59.90;102111.97;5108842;27;45375;-80
2022/03/21 02:23:30;;;;;;;;;65.00;51.00;;;;;9.30;59.82;102133.78;5111409;27;45184;-80
2022/03/21 02:25:57;;;;;;;;;54.50;41.25;;;;;9.09;59.79;102100.97;5109957;27;45114;-80
2022/03/21 02:28:26;;;;;;;;;65.00;51.25;;;;;9.28;59.97;102132.78;5110137;27;46315;-80
2022/03/21 02:30:55;;;;;;;;;66.25;53.00;;;;;9.35;60.11;102138.41;5110758;27;45228;-80
2022/03/21 02:33:21;;;;;;;;;62.75;51.25;;;;;9.35;60.05;102125.28;5110266;27;45419;-80
2022/03/21 02:35:48;;;;;;;;;65.50;51.50;;;;;9.35;60.27;102120.94;5110810;27;45351;-79
2022/03/21 02:38:16;;;;;;;;;68.25;53.75;;;;;9.40;59.69;102119.50;5110003;27;45713;-80
2022/03/21 02:40:42;;;;;;;;;70.00;53.00;;;;;9.45;59.89;102122.41;5109660;27;45429;-80
2022/03/21 02:43:08;;;;;;;;;66.75;54.00;;;;;9.26;59.95;102089.84;5090494;27;45145;-80
2022/03/21 02:45:33;;;;;;;;;65.75;52.50;;;;;9.42;60.39;102104.78;5089531;28;45023;-80
2022/03/21 02:47:59;;;;;;;;;68.75;52.75;;;;;9.42;60.06;102103.88;5088654;27;45635;-80
2022/03/21 02:51:01;;;;;;;;;65.33;51.00;;;;;9.52;60.28;102112.41;5088939;27;46424;-80
2022/03/21 02:53:30;;;;;;;;;65.00;51.00;;;;;9.44;60.36;102099.63;5050611;27;45189;-80
2022/03/21 02:55:56;;;;;;;;;66.00;51.00;;;;;9.50;60.35;102108.75;5099468;27;45212;-80
2022/03/21 02:58:22;;;;;;;;;66.50;52.75;;;;;9.37;60.20;102072.13;5087858;28;45567;-80
2022/03/21 03:00:48;;;;;;;;;65.00;51.75;;;;;9.60;60.12;102119.81;5101020;27;44939;-79
2022/03/21 03:03:13;;;;;;;;;71.25;55.25;;;;;9.48;60.52;102089.41;5131484;27;45221;-80
2022/03/21 03:05:39;;;;;;;;;64.75;51.00;;;;;9.57;60.25;102105.72;5099290;27;44953;-80
2022/03/21 03:08:04;;;;;;;;;63.67;51.67;;;;;9.67;60.44;102119.41;5091994;27;46055;-79
2022/03/21 03:10:30;;;;;;;;;67.50;52.75;;;;;9.67;60.17;102119.41;5109132;27;45114;-80
2022/03/21 03:12:56;;;;;;;;;65.50;51.50;;;;;9.61;60.77;102112.06;5099895;27;45113;-80
2022/03/21 03:15:21;;;;;;;;;64.75;52.25;;;;;9.67;60.54;102120.28;5088360;27;44982;-80
2022/03/21 03:17:46;;;;;;;;;64.00;51.50;;;;;9.69;60.48;102123.91;5089099;28;46043;-80
2022/03/21 03:20:12;;;;;;;;;63.00;52.00;;;;;9.69;60.58;102118.66;5088103;27;45175;-80
2022/03/21 03:22:38;;;;;;;;;63.25;51.50;;;;;9.61;60.85;102101.56;5087632;27;44978;-80
2022/03/21 03:25:04;;;;;;;;;66.25;53.00;;;;;9.70;60.80;102116.94;5088388;27;45229;-80
2022/03/21 03:27:31;;;;;;;;;61.25;50.75;;;;;9.56;60.88;102097.75;5082186;28;45155;-80
2022/03/21 03:29:57;;;;;;;;;68.50;52.00;;;;;9.72;60.66;102123.19;5088078;28;45255;-80
2022/03/21 03:32:23;;;;;;;;;71.50;54.00;;;;;9.74;60.54;102132.97;5087758;27;45229;-80
2022/03/21 03:34:48;;;;;;;;;68.50;54.25;;;;;9.69;60.62;102117.75;5088970;27;45267;-80
2022/03/21 03:37:14;;;;;;;;;72.75;55.50;;;;;9.77;60.48;102130.53;5088687;27;45431;-80
2022/03/21 03:39:39;;;;;;;;;67.50;53.50;;;;;9.62;60.57;102105.09;5088171;27;45278;-79
2022/03/21 03:42:05;;;;;;;;;65.75;52.75;;;;;9.83;60.46;102140.50;5088982;27;45207;-80
2022/03/21 03:44:30;;;;;;;;;63.50;51.00;;;;;9.81;60.90;102131.63;5088526;27;45122;-80
2022/03/21 03:46:55;;;;;;;;;71.00;54.33;;;;;9.64;60.88;102093.84;5086380;28;53962;-80
2022/03/21 03:49:21;;;;;;;;;71.67;53.33;;;;;9.84;60.33;102139.66;5088461;27;46493;-80
2022/03/21 03:51:46;;;;;;;;;64.50;52.00;;;;;9.88;60.65;102143.41;5088791;28;45091;-80
2022/03/21 03:54:11;;;;;;;;;66.00;53.25;;;;;9.89;60.57;102127.72;5087370;27;45110;-80
2022/03/21 03:56:37;;;;;;;;;63.67;50.00;;;;;9.67;60.90;102093.16;5088264;27;45313;-80
2022/03/21 03:59:02;;;;;;;;;68.67;55.00;;;;;9.89;60.34;102132.97;5088320;28;45393;-80
2022/03/21 04:01:27;;;;;;;;;66.33;52.00;;;;;9.86;60.65;102124.03;5088521;27;45305;-80
2022/03/21 04:03:53;;;;;;;;;65.75;51.75;;;;;9.91;60.43;102135.72;5087751;27;45325;-80
2022/03/21 04:06:23;;;;;;;;;67.25;52.00;;;;;9.87;60.60;102124.13;5087406;27;45409;-80
2022/03/21 04:08:50;;;;;;;;;61.25;50.00;;;;;9.82;60.85;102118.59;5088650;27;45143;-80
2022/03/21 04:11:16;;;;;;;;;66.25;53.00;;;;;9.91;60.27;102135.72;5087539;27;45109;-80
2022/03/21 04:13:43;;;;;;;;;66.00;52.75;;;;;9.92;60.91;102142.78;5088216;27;44967;-80
2022/03/21 04:16:09;;;;;;;;;67.50;52.75;;;;;9.74;60.95;102111.06;5087516;27;46081;-80
2022/03/21 04:18:38;;;;;;;;;65.00;52.00;;;;;9.66;60.74;102102.75;5087983;28;45058;-80
2022/03/21 04:21:04;;;;;;;;;65.25;51.00;;;;;9.83;60.78;102133.53;5088648;27;44989;-80
2022/03/21 04:23:29;;;;;;;;;65.75;51.00;;;;;9.66;60.93;102105.38;5087884;27;45147;-80
2022/03/21 04:25:55;;;;;;;;;66.33;53.00;;;;;9.88;60.93;102152.19;5083340;27;54451;-80
2022/03/21 04:28:20;;;;;;;;;66.00;53.00;;;;;9.59;61.14;102108.41;5102189;27;45134;-80
2022/03/21 04:30:46;;;;;;;;;62.75;51.25;;;;;9.90;61.32;102162.75;5110327;27;45259;-80
2022/03/21 04:33:14;;;;;;;;;67.50;53.00;;;;;9.87;61.23;102166.13;5089883;28;45064;-80
2022/03/21 04:35:41;;;;;;;;;66.75;52.25;;;;;9.85;60.84;102159.84;5091679;28;45494;-80
2022/03/21 04:38:13;;;;;;;;;66.00;52.50;;;;;9.79;61.12;102152.53;5090191;28;45448;-80
2022/03/21 04:40:44;;;;;;;;;69.00;53.50;;;;;9.90;61.32;102168.00;5089578;28;45125;-80
2022/03/21 04:43:10;;;;;;;;;65.50;52.00;;;;;9.89;61.01;102167.13;5091566;28;45381;-80
2022/03/21 04:45:36;;;;;;;;;64.75;52.25;;;;;9.93;61.36;102160.34;5091346;28;45315;-80
2022/03/21 04:48:02;;;;;;;;;66.00;52.50;;;;;9.82;61.39;102151.81;5090943;28;45322;-80
2022/03/21 04:50:28;;;;;;;;;62.00;50.75;;;;;9.93;61.25;102169.13;5091318;28;45224;-80
2022/03/21 04:52:53;;;;;;;;;68.75;53.50;;;;;9.96;61.37;102177.19;5091920;27;45202;-80
2022/03/21 04:55:19;;;;;;;;;63.00;49.00;;;;;9.82;61.29;102155.34;5090761;27;45036;-80
2022/03/21 04:57:44;;;;;;;;;62.75;51.50;;;;;9.79;61.63;102146.38;5091373;27;45565;-79
2022/03/21 05:00:10;;;;;;;;;61.67;50.33;;;;;9.99;61.52;102182.59;5090962;28;45336;-80
2022/03/21 05:02:35;;;;;;;;;65.00;52.25;;;;;9.92;61.37;102163.78;5091243;28;45272;-80
2022/03/21 05:05:02;;;;;;;;;69.67;54.00;;;;;9.98;61.54;102179.91;5091257;28;45447;-80
2022/03/21 05:07:27;;;;;;;;;65.75;52.25;;;;;10.00;61.37;102188.75;5090963;28;45364;-80
2022/03/21 05:09:52;;;;;;;;;62.50;50.75;;;;;9.76;61.52;102143.59;5090796;28;45369;-80
2022/03/21 05:12:19;;;;;;;;;64.25;52.25;;;;;9.83;61.17;102164.13;5088608;28;45168;-80
2022/03/21 05:14:44;;;;;;;;;66.50;53.25;;;;;9.94;61.39;102177.91;5090685;28;46535;-80
2022/03/21 05:17:10;;;;;;;;;67.00;52.33;;;;;9.95;61.99;102182.31;5090478;28;46363;-80
2022/03/21 05:19:36;;;;;;;;;66.50;53.25;;;;;10.00;61.55;102189.69;5091320;27;45146;-79
2022/03/21 05:22:04;;;;;;;;;68.75;54.00;;;;;10.01;61.28;102191.50;5091009;28;45320;-80
2022/03/21 05:32:41;;;;;;;;;67.50;53.25;;;;;9.84;61.50;102176.44;5090050;28;45272;-80
2022/03/21 05:37:50;;;;;;;;;68.50;53.25;;;;;9.87;61.43;102202.00;5110595;27;44995;-79
2022/03/21 05:43:01;;;;;;;;;63.00;51.00;;;;;9.59;61.92;102170.50;5090497;28;45313;-80
2022/03/21 05:45:28;;;;;;;;;63.25;50.75;;;;;9.67;61.99;102193.81;5088867;28;46223;-80
2022/03/21 05:50:38;;;;;;;;;65.50;53.00;;;;;9.52;62.02;102170.13;5090473;28;45079;-80
2022/03/21 05:53:05;;;;;;;;;68.75;53.75;;;;;9.62;62.39;102184.75;5110210;27;45324;-80
2022/03/21 05:55:32;;;;;;;;;62.50;49.75;;;;;9.65;62.41;102202.38;5106575;27;46056;-80
2022/03/21 05:57:58;;;;;;;;;65.25;52.50;;;;;9.47;62.21;102186.41;5090806;27;45250;-80
2022/03/21 06:00:24;;;;;;;;;63.25;52.00;;;;;9.56;62.23;102222.03;5084654;27;45204;-80
2022/03/21 06:02:51;;;;;;;;;65.00;51.25;;;;;9.38;62.39;102199.88;5094326;27;45400;-80
2022/03/21 06:05:19;;;;;;;;;61.00;50.25;;;;;9.38;62.67;102209.47;5097827;27;46114;-82
2022/03/21 06:07:46;;;;;;;;;63.00;50.75;;;;;9.39;62.82;102227.00;5090103;27;45190;-80
2022/03/21 06:10:12;;;;;;;;;61.25;50.50;;;;;9.19;62.97;102196.91;5089735;28;45024;-80
2022/03/21 06:12:38;;;;;;;;;69.25;54.75;;;;;9.30;63.09;102227.31;5090717;27;45357;-79
2022/03/21 06:15:04;;;;;;;;;59.75;49.00;;;;;9.16;63.10;102221.22;5089707;28;45687;-80
2022/03/21 06:17:29;;;;;;;;;64.75;51.00;;;;;9.12;63.06;102220.94;5090060;27;45295;-79
2022/03/21 06:19:55;;;;;;;;;69.33;54.67;;;;;9.18;63.03;102235.34;5090342;27;45084;-80
2022/03/21 06:22:20;;;;;;;;;65.00;51.67;;;;;9.15;63.23;102232.50;5089185;27;51008;-80
2022/03/21 06:24:45;;;;;;;;;64.50;51.00;;;;;9.10;63.45;102228.69;5083971;27;46090;-79
2022/03/21 06:27:11;;;;;;;;;64.50;51.00;;;;;9.21;63.51;102255.59;5087578;27;45270;-79
2022/03/21 06:29:39;;;;;;;;;69.25;54.50;;;;;9.24;63.78;102259.34;5088678;27;45272;-81
2022/03/21 06:32:05;;;;;;;;;68.00;53.00;;;;;9.28;63.63;102253.47;5093797;27;46191;-79
2022/03/21 06:34:30;;;;;;;;;65.75;53.50;;;;;9.32;63.40;102254.59;5089418;27;45394;-79
2022/03/21 06:36:55;;;;;;;;;63.33;51.33;;;;;9.42;63.58;102269.19;5090920;27;45619;-80
2022/03/21 06:39:20;;;;;;;;;65.67;52.00;;;;;9.32;63.56;102237.94;5088748;27;45205;-80
2022/03/21 06:41:46;;;;;;;;;65.00;50.25;;;;;9.35;63.65;102231.16;5089559;27;45378;-80
2022/03/21 06:44:13;;;;;;;;;65.00;51.75;;;;;9.65;63.89;102268.91;5086855;28;46117;-81
2022/03/21 06:46:39;;;;;;;;;65.50;52.00;;;;;9.64;63.78;102256.59;5089281;27;45182;-81
2022/03/21 06:49:04;;;;;;;;;69.50;53.00;;;;;9.64;63.62;102237.31;5088243;27;45165;-81
2022/03/21 06:51:30;;;;;;;;;66.00;52.67;;;;;9.93;63.71;102270.63;5087337;28;45400;-81
2022/03/21 06:53:55;;;;;;;;;60.75;49.00;;;;;9.99;63.48;102281.50;5087228;27;45075;-81
2022/03/21 06:56:21;;;;;;;;;65.25;51.75;;;;;10.06;63.13;102278.47;5087237;27;45537;-80
2022/03/21 06:58:46;;;;;;;;;69.00;53.75;;;;;10.17;63.30;102287.00;5086520;28;45056;-82
2022/03/21 07:01:12;;;;;;;;;69.75;54.00;;;;;10.18;63.16;102275.66;5086550;27;45384;-78
2022/03/21 07:03:37;;;;;;;;;72.00;54.33;;;;;10.17;63.10;102266.88;5087497;27;45669;-80
2022/03/21 07:06:02;;;;;;;;;67.00;53.33;;;;;10.09;63.35;102241.84;5086842;27;45395;-80
2022/03/21 07:08:28;;;;;;;;;69.33;53.00;;;;;10.24;62.55;102258.56;5088218;27;45062;-79
2022/03/21 07:10:53;;;;;;;;;67.67;54.33;;;;;10.45;62.70;102277.38;5088474;27;45004;-80
2022/03/21 07:13:18;;;;;;;;;71.00;54.33;;;;;10.42;62.42;102252.63;5088638;27;45302;-80
2022/03/21 07:15:44;;;;;;;;;66.00;54.25;;;;;10.68;62.24;102289.22;5087894;27;45101;-88
2022/03/21 07:18:10;;;;;;;;;68.75;53.00;;;;;10.72;62.54;102285.97;5105009;27;45195;-80
2022/03/21 07:20:37;;;;;;;;;67.75;53.25;;;;;10.84;62.48;102288.44;5089019;27;45151;-80
2022/03/21 07:23:02;;;;;;;;;68.00;53.00;;;;;10.84;62.25;102270.91;5086894;27;45082;-80
2022/03/21 07:25:28;;;;;;;;;72.25;55.50;;;;;10.88;61.86;102260.56;5086372;27;45155;-80
2022/03/21 07:27:54;;;;;;;;;72.50;54.75;;;;;11.00;61.55;102261.28;5088882;27;44921;-80
2022/03/21 07:30:20;;;;;;;;;65.75;53.00;;;;;11.29;61.62;102290.16;5088398;27;45159;-81
2022/03/21 07:32:45;;;;;;;;;70.50;53.25;;;;;11.32;61.35;102276.22;5089053;27;45679;-79
2022/03/21 07:35:12;;;;;;;;;70.00;55.25;;;;;11.48;61.11;102289.44;5088177;27;45229;-79
2022/03/21 07:37:53;;;;;;;;;71.50;55.50;;;;;11.53;61.01;102285.34;5088764;27;45149;-79
2022/03/21 07:40:19;;;;;;;;;72.75;57.00;;;;;11.50;60.73;102282.53;5088518;27;45064;-80
2022/03/21 07:42:47;;;;;;;;;67.25;51.75;;;;;11.55;60.40;102295.94;5082476;27;45063;-79
2022/03/21 07:47:58;;;;;;;;;59.50;49.25;;;;;11.45;60.57;102291.00;5088892;28;45381;-80
2022/03/21 07:50:25;;;;;;;;;54.25;45.50;;;;;11.48;60.78;102297.34;5080495;27;45448;-79
2022/03/21 07:52:51;;;;;;;;;53.50;44.25;;;;;11.47;60.14;102292.88;5078470;28;46435;-80
2022/03/21 07:55:17;;;;;;;;;56.00;44.50;;;;;11.16;60.53;102236.72;5075939;28;45388;-82
2022/03/21 07:57:42;;;;;;;;;58.00;48.25;;;;;11.48;60.47;102286.81;5074033;27;45474;-89
2022/03/21 08:00:09;;;;;;;;;59.67;47.33;;;;;11.58;60.37;102294.41;5071385;27;45453;-80
2022/03/21 08:02:35;;;;;;;;;53.75;45.25;;;;;11.60;60.24;102292.75;5072786;27;45350;-79
2022/03/21 08:05:01;;;;;;;;;43.25;39.25;;;;;11.60;59.86;102300.66;5072991;27;45297;-80
2022/03/21 08:07:27;;;;;;;;;54.00;44.50;;;;;11.62;60.31;102298.09;5072457;27;45377;-79
2022/03/21 08:09:52;;;;;;;;;56.00;46.00;;;;;11.63;60.32;102299.94;5076285;27;45836;-79
2022/03/21 08:12:18;;;;;;;;;55.25;44.50;;;;;11.65;60.14;102298.28;5088745;28;45442;-80
2022/03/21 08:14:43;;;;;;;;;52.25;42.25;;;;;11.68;59.77;102303.72;5091711;27;45102;-79
2022/03/21 08:17:09;;;;;;;;;51.67;42.67;;;;;11.65;59.87;102293.00;5091413;28;45037;-79
2022/03/21 08:19:35;;;;;;;;;47.25;39.75;;;;;11.75;59.88;102304.94;5107417;27;45273;-79
2022/03/21 08:22:01;;;;;;;;;52.50;41.50;;;;;11.68;59.21;102285.28;5088900;28;46638;-80
2022/03/21 08:24:28;;;;;;;;;49.00;38.75;;;;;11.70;59.01;102280.09;5089126;27;45128;-80
2022/03/21 08:26:54;;;;;;;;;49.75;41.25;;;;;11.87;59.20;102297.72;5090283;28;45129;-80
2022/03/21 08:29:19;;;;;;;;;52.00;41.00;;;;;11.84;59.14;102287.06;5090118;28;45126;-79
2022/03/21 08:31:45;;;;;;;;;47.00;36.75;;;;;11.92;58.91;102297.97;5092385;27;45221;-79
2022/03/21 08:34:10;;;;;;;;;49.00;39.00;;;;;12.00;58.99;102302.84;5123764;27;45122;-79
2022/03/21 08:36:36;;;;;;;;;46.75;38.00;;;;;12.10;58.94;102313.06;5091548;28;44998;-80
2022/03/21 08:39:02;;;;;;;;;44.75;37.25;;;;;12.04;58.47;102290.75;5091122;28;45357;-82
2022/03/21 08:41:28;;;;;;;;;48.50;38.75;;;;;12.23;58.14;102319.91;5091359;28;45406;-83
2022/03/21 08:43:53;;;;;;;;;48.50;39.75;;;;;12.18;57.79;102305.56;5091224;27;45078;-86
2022/03/21 08:46:21;;;;;;;;;48.00;40.75;;;;;12.25;58.21;102309.44;5089880;27;45141;-80
2022/03/21 08:51:31;;;;;;;;;48.25;39.25;;;;;12.33;58.08;102310.75;5090799;28;45234;-81
2022/03/21 08:53:56;;;;;;;;;51.00;41.00;;;;;12.34;57.77;102299.38;5091248;28;45157;-80
2022/03/21 08:56:22;;;;;;;;;45.75;38.00;;;;;12.43;57.99;102312.13;5091431;27;44982;-83
2022/03/21 08:58:47;;;;;;;;;41.75;36.75;;;;;12.39;57.42;102288.22;5089522;27;45249;-82
2022/03/21 09:01:13;;;;;;;;;44.25;38.75;;;;;12.41;57.64;102277.75;5090932;27;45546;-79
2022/03/21 09:03:38;;;;;;;;;48.67;40.67;;;;;12.52;57.73;102289.78;5091550;27;45073;-80
2022/03/21 09:06:03;;;;;;;;;47.75;40.25;;;;;12.44;57.56;102261.19;5090856;27;45150;-80
2022/03/21 09:08:29;;;;;;;;;38.33;36.00;;;;;12.69;57.55;102293.25;5090922;27;45488;-81
2022/03/21 09:10:55;;;;;;;;;49.75;39.50;;;;;12.83;57.39;102307.16;5090574;27;45219;-80
2022/03/21 09:13:20;;;;;;;;;46.75;39.00;;;;;12.88;57.54;102308.28;5089690;27;45495;-81
2022/03/21 09:15:46;;;;;;;;;42.25;36.00;;;;;12.95;57.46;102306.84;5090789;27;45281;-80
2022/03/21 09:18:11;;;;;;;;;40.50;35.75;;;;;12.99;56.69;102300.91;5088512;28;45177;-80
2022/03/21 09:20:37;;;;;;;;;50.75;36.25;;;;;12.92;57.09;102275.97;5090771;27;45823;-80
2022/03/21 09:23:04;;;;;;;;;40.25;34.50;;;;;13.10;56.54;102289.13;5086974;27;45056;-80
2022/03/21 09:25:29;;;;;;;;;35.50;33.25;;;;;12.96;56.16;102250.63;5088717;27;45246;-80
2022/03/21 09:27:54;;;;;;;;;33.50;31.50;;;;;13.30;55.98;102295.41;5087723;27;45230;-80
2022/03/21 09:30:20;;;;;;;;;36.00;31.33;;;;;13.21;55.65;102269.47;5078004;28;47110;-81
2022/03/21 09:32:45;;;;;;;;;29.00;27.00;;;;;13.21;55.44;102256.25;5089588;27;45068;-80
2022/03/21 09:35:12;;;;;;;;;36.67;29.67;;;;;13.48;55.46;102290.13;5088747;27;46492;-80
2022/03/21 09:37:37;;;;;;;;;28.75;26.00;;;;;13.42;55.53;102273.16;5087740;28;45166;-80
2022/03/21 09:40:03;;;;;;;;;31.00;27.75;;;;;13.50;55.12;102273.53;5088425;27;45445;-80
2022/03/21 09:42:28;;;;;;;;;30.75;28.00;;;;;13.43;55.23;102248.56;5107652;27;45486;-80
2022/03/21 09:44:54;;;;;;;;;31.00;29.75;;;;;13.51;54.69;102241.00;5109428;27;44940;-80
2022/03/21 09:50:10;;;;;;;;;25.75;23.50;;;;;13.83;54.57;102268.88;5089759;28;45831;-81
2022/03/21 09:52:36;;;;;;;;;25.75;25.25;;;;;13.71;54.67;102234.00;5089381;28;45513;-80
2022/03/21 09:55:02;;;;;;;;;27.00;23.50;;;;;13.98;54.59;102267.78;5090259;28;45089;-80
2022/03/21 09:57:28;;;;;;;;;32.50;30.50;;;;;14.00;54.30;102261.75;5089926;27;45146;-80
2022/03/21 09:59:58;;;;;;;;;28.75;27.50;;;;;14.13;54.77;102268.47;5090264;27;45756;-81
2022/03/21 10:02:24;;;;;;;;;30.00;30.00;;;;;13.98;54.26;102223.72;5090312;27;45143;-81
2022/03/21 10:04:50;;;;;;;;;30.00;28.00;;;;;14.00;54.53;102223.81;5090322;27;45182;-81
2022/03/21 10:07:28;;;;;;;;;31.00;29.50;;;;;14.38;54.12;102263.44;5088773;27;45452;-81
2022/03/21 10:10:08;;;;;;;;;23.25;23.25;;;;;14.44;54.05;102261.03;5089970;28;45217;-81
2022/03/21 10:12:35;;;;;;;;;22.25;19.25;;;;;14.51;53.45;102256.03;5088557;27;45634;-81
2022/03/21 10:15:04;;;;;;;;;23.50;21.50;;;;;14.60;53.62;102265.28;5088296;28;45276;-81
2022/03/21 10:17:30;;;;;;;;;20.50;19.75;;;;;14.70;53.35;102264.81;5090411;28;45169;-81
2022/03/21 10:19:55;;;;;;;;;22.67;20.00;;;;;14.61;53.43;102232.69;5088028;28;45180;-81
2022/03/21 10:22:34;;;;;;;;;21.67;21.33;;;;;14.84;52.89;102252.19;5089560;28;46476;-80
2022/03/21 10:25:08;;;;;;;;;22.25;21.50;;;;;14.84;52.67;102241.59;5089821;27;45098;-81
2022/03/21 10:27:38;;;;;;;;;18.75;17.75;;;;;14.93;52.69;102249.00;5088096;28;45011;-81
2022/03/21 10:30:08;;;;;;;;;19.00;16.00;;;;;14.98;53.10;102251.84;5088006;28;45489;-81
2022/03/21 10:32:51;;;;;;;;;19.25;18.50;;;;;15.07;52.63;102249.53;5089798;27;45211;-80
2022/03/21 10:35:18;;;;;;;;;19.75;17.00;;;;;15.10;52.36;102247.03;5089489;28;45074;-81
2022/03/21 10:37:47;;;;;;;;;18.25;17.75;;;;;15.13;52.22;102249.81;5090419;28;45035;-81
2022/03/21 10:40:19;;;;;;;;;19.00;17.00;;;;;15.02;51.87;102220.22;5086150;28;46522;-80
2022/03/21 10:43:10;;;;;;;;;20.25;18.75;;;;;15.20;52.17;102241.25;5087808;28;45535;-81
2022/03/21 10:45:35;;;;;;;;;17.50;14.25;;;;;15.26;52.19;102240.59;5089486;28;45177;-81
2022/03/21 10:48:04;;;;;;;;;17.00;17.00;;;;;15.31;51.92;102231.97;5085888;28;45303;-81
2022/03/21 10:50:32;;;;;;;;;16.50;15.25;;;;;15.26;51.86;102214.09;5089331;28;45843;-81
2022/03/21 10:53:10;;;;;;;;;15.00;13.50;;;;;15.47;52.38;102238.78;5089361;27;45175;-80
2022/03/21 10:55:35;;;;;;;;;16.50;15.25;;;;;15.45;51.41;102214.88;5089094;27;45030;-81
2022/03/21 10:58:01;;;;;;;;;21.50;20.25;;;;;15.60;51.30;102227.78;5088120;27;45781;-81
2022/03/21 11:00:27;;;;;;;;;13.25;12.50;;;;;15.64;51.29;102223.56;5088324;27;45104;-81
2022/03/21 11:02:57;;;;;;;;;23.50;22.50;;;;;15.69;50.84;102221.97;5087960;27;45096;-81
2022/03/21 11:05:25;;;;;;;;;20.75;19.75;;;;;15.68;50.44;102217.53;5089195;27;45060;-81
2022/03/21 11:07:51;;;;;;;;;22.33;21.33;;;;;15.69;51.18;102217.56;5088207;27;45060;-81
2022/03/21 11:10:17;;;;;;;;;17.00;17.00;;;;;15.61;51.16;102181.00;5088500;28;45203;-81
2022/03/21 11:12:43;;;;;;;;;23.00;20.75;;;;;15.80;50.62;102196.75;5089169;27;45086;-81
2022/03/21 11:15:10;;;;;;;;;21.25;21.25;;;;;15.81;51.35;102195.00;5088674;27;45060;-81
2022/03/21 11:17:36;;;;;;;;;22.75;21.00;;;;;16.06;50.86;102215.34;5087536;27;45174;-81
2022/03/21 11:20:04;;;;;;;;;22.00;19.50;;;;;15.97;50.52;102190.34;5088670;27;45132;-81
2022/03/21 11:22:30;;;;;;;;;20.75;19.00;;;;;16.15;50.46;102207.72;5088730;27;45582;-81
2022/03/21 11:25:07;;;;;;;;;20.00;19.75;;;;;16.23;50.29;102207.16;5118999;27;45342;-80
2022/03/21 11:28:01;;;;;;;;;17.75;17.25;;;;;16.31;50.37;102204.78;5088244;27;45177;-81
2022/03/21 11:30:33;;;;;;;;;21.00;20.25;;;;;16.22;49.40;102183.22;5086865;28;45998;-81
2022/03/21 11:33:37;;;;;;;;;18.50;18.00;;;;;16.36;50.43;102181.97;5104238;27;45537;-81
2022/03/21 11:36:07;;;;;;;;;18.50;16.00;;;;;16.43;49.95;102170.69;5073715;27;45069;-81
2022/03/21 11:38:46;;;;;;;;;18.25;16.50;;;;;16.58;49.43;102180.91;5087416;27;45269;-80
2022/03/21 11:41:22;;;;;;;;;15.00;13.75;;;;;16.75;49.53;102187.72;5087946;27;45846;-81